Louviers, CO (80131)

3:29 AM MST on December 09, 2016 (GMT -0700)
Chatfield East | | Change Station

Elev 5723 ft 39.51 °N, 105.02 °W | Updated 20 seconds ago

Clear
Clear
5.4 °F
Feels Like -8 °F
N
8.1
Wind Variable Wind from SSE
Gusts 8.1 mph

Today
High -- | Low -- °F
--% Chance of Precip.
Yesterday
High -- | Low -- °F
Precip. -- in
Pressure 30.32 in
Visibility 10.0 miles
Clouds Few 20000 ft
Windchill -8 °F
Dew Point 1 °F
Humidity 82%
Rainfall 0.00 in
Snow Depth Not available.
7:09 AM 4:36 PM
Waxing Gibbous, 72% visible
METAR KAPA 090953Z 17004KT 10SM FEW200 M14/M16 A3007 RMK AO2 SLP267 T11441161
Pressure 30.32 in
Visibility 10.0 miles
Clouds Few 20000 ft
Windchill -8 °F
Dew Point 1 °F
Humidity 82%
Rainfall 0.00 in
Snow Depth Not available.
7:09 AM 4:36 PM
Waxing Gibbous, 72% visible
METAR KAPA 090953Z 17004KT 10SM FEW200 M14/M16 A3007 RMK AO2 SLP267 T11441161

10-Day Weather Forecast

Almanac

Astronomy

Dec. 09, 2016 Rise Set
Actual Time
Civil Twilight
Nautical Twilight
Astronomical Twilight
Moon
Length of Visible Light
Length of Day
Tomorrow will be .
, % of the Moon is Illuminated

Today's Extremes

State Highs State Lows

Community

WunderPhotos

Upload Photos

1,956,378 photos uploaded!

WunderBlog® & News

Nearby

Air Quality

  Air Quality AQ Index Pollutant
Not available.

Snow Depth

Station Depth Elevation

Earthquake Activity

City Distance Mag. Time & Date
Minimum magnitude displayed is 2.5.

Coastal Water Temperatures

Place Temperature

Stations

Nearby Weather Stations

Station Location Temp. Windchill Dew Point Humidity Wind Precip. Elev Updated Type
                   

Watches & Warnings

There are currently no watches in effect.